Time;durP1;ratioP1;P1;durP2;ratioP2;P2;SDS_P1;SDS_P2;PMS_P1;PMS_P2;Temp;Humidity;BMP_temperature;BMP_pressure;BME280_temperature;BME280_humidity;BME280_pressure;Samples;Min_cycle;Max_cycle;Signal;HPM_P1;HPM_P2
2023/06/25 00:00:05;;;;;;;3.20;2.90;;;21.50;88.60;;;;;;5111485;28;20196;-65
2023/06/25 00:02:47;;;;;;;5.10;3.15;;;21.40;88.70;;;;;;5108840;28;20251;-66
2023/06/25 00:05:15;;;;;;;3.00;2.80;;;21.40;88.80;;;;;;5104622;28;20295;-65
2023/06/25 00:07:42;;;;;;;3.20;2.92;;;21.40;89.00;;;;;;5108548;28;20702;-65
2023/06/25 00:10:11;;;;;;;2.90;2.70;;;21.40;89.00;;;;;;5111536;28;20246;-65
2023/06/25 00:12:38;;;;;;;2.80;2.60;;;21.30;89.10;;;;;;5108529;28;20211;-64
2023/06/25 00:15:09;;;;;;;3.72;3.28;;;21.20;89.20;;;;;;5106170;28;20290;-65
2023/06/25 00:17:37;;;;;;;3.47;3.17;;;21.20;89.50;;;;;;5104176;28;20287;-65
2023/06/25 00:20:07;;;;;;;3.58;3.30;;;21.10;89.50;;;;;;5098652;28;20208;-65
2023/06/25 00:22:35;;;;;;;4.93;4.50;;;21.20;89.70;;;;;;5096770;28;20675;-66
2023/06/25 00:25:05;;;;;;;4.20;3.80;;;21.10;89.70;;;;;;5095883;28;20225;-65
2023/06/25 00:27:32;;;;;;;3.40;3.10;;;21.10;89.70;;;;;;5111068;28;20222;-66
2023/06/25 00:30:00;;;;;;;4.05;3.65;;;21.20;89.80;;;;;;5104331;28;20327;-66
2023/06/25 00:32:27;;;;;;;3.83;3.53;;;21.10;89.70;;;;;;5107014;28;20200;-66
2023/06/25 00:34:57;;;;;;;4.75;4.28;;;21.10;89.70;;;;;;5103558;28;20755;-65
2023/06/25 00:37:27;;;;;;;5.30;4.70;;;21.10;89.90;;;;;;5100899;28;20203;-65
2023/06/25 00:39:56;;;;;;;7.45;5.57;;;21.00;89.90;;;;;;5104965;28;20295;-65
2023/06/25 00:42:23;;;;;;;4.78;4.35;;;21.00;90.00;;;;;;5109934;28;20206;-66
2023/06/25 00:44:51;;;;;;;4.22;3.83;;;21.00;90.00;;;;;;5110992;28;20196;-65
2023/06/25 00:47:19;;;;;;;3.92;3.63;;;21.00;90.00;;;;;;5110368;28;20192;-66
2023/06/25 00:49:49;;;;;;;3.60;3.28;;;20.90;90.00;;;;;;5111410;28;20188;-66
2023/06/25 00:52:16;;;;;;;4.40;4.00;;;20.90;90.00;;;;;;5108832;28;20354;-65
2023/06/25 00:54:46;;;;;;;4.80;3.90;;;20.90;90.00;;;;;;5110507;28;20294;-65
2023/06/25 00:57:15;;;;;;;5.28;4.60;;;20.90;90.10;;;;;;5101813;28;20219;-65
2023/06/25 00:59:44;;;;;;;3.60;3.30;;;20.80;90.00;;;;;;5111416;28;20306;-65
2023/06/25 01:02:22;;;;;;;3.40;3.10;;;20.80;90.10;;;;;;5104016;28;20254;-65
2023/06/25 01:04:57;;;;;;;2.78;2.58;;;20.80;90.20;;;;;;5097150;28;20207;-65
2023/06/25 01:07:26;;;;;;;3.65;3.28;;;20.70;90.10;;;;;;5100172;28;20191;-65
2023/06/25 01:09:56;;;;;;;3.60;3.30;;;20.70;90.20;;;;;;5096097;28;20207;-65
2023/06/25 01:12:24;;;;;;;3.42;3.10;;;20.70;90.20;;;;;;5105522;28;20216;-65
2023/06/25 01:14:51;;;;;;;3.22;3.00;;;20.70;90.30;;;;;;5109676;28;20644;-65
2023/06/25 01:17:19;;;;;;;3.13;2.90;;;20.60;90.30;;;;;;5110416;28;20686;-65
2023/06/25 01:19:47;;;;;;;3.47;3.17;;;20.60;90.30;;;;;;5110444;28;20192;-65
2023/06/25 01:22:17;;;;;;;3.20;3.00;;;20.60;90.40;;;;;;5091360;28;20651;-65
2023/06/25 01:24:49;;;;;;;3.78;3.47;;;20.50;90.40;;;;;;5104175;28;20555;-65
2023/06/25 01:27:17;;;;;;;4.75;4.25;;;20.40;90.50;;;;;;5104765;28;20742;-66
2023/06/25 01:29:48;;;;;;;3.60;3.30;;;20.40;90.60;;;;;;5110522;28;20330;-65
2023/06/25 01:32:16;;;;;;;3.65;3.25;;;20.40;90.70;;;;;;5103621;28;20233;-66
2023/06/25 01:34:44;;;;;;;2.90;2.70;;;20.40;90.70;;;;;;5109289;28;20199;-65
2023/06/25 01:37:17;;;;;;;3.03;2.83;;;20.40;90.70;;;;;;5107012;28;20212;-65
2023/06/25 01:39:49;;;;;;;3.42;3.13;;;20.30;90.70;;;;;;5110477;28;20217;-65
2023/06/25 01:42:16;;;;;;;3.65;3.35;;;20.30;90.80;;;;;;5110022;28;20196;-65
2023/06/25 01:44:44;;;;;;;5.47;3.72;;;20.30;90.80;;;;;;5110741;28;20285;-65
2023/06/25 01:47:11;;;;;;;4.15;3.75;;;20.20;90.90;;;;;;5108668;28;20651;-66
2023/06/25 01:49:39;;;;;;;3.47;3.17;;;20.20;90.90;;;;;;5107710;28;20214;-66
2023/06/25 01:52:08;;;;;;;3.70;3.40;;;20.20;91.10;;;;;;5106489;28;20196;-65
2023/06/25 01:54:36;;;;;;;2.92;2.72;;;20.10;91.10;;;;;;5100024;28;20214;-66
2023/06/25 01:57:06;;;;;;;3.15;2.95;;;20.10;91.20;;;;;;5109191;28;20192;-65
2023/06/25 01:59:38;;;;;;;3.38;2.97;;;20.10;91.30;;;;;;5100658;28;20283;-65
2023/06/25 02:02:06;;;;;;;3.10;2.83;;;20.00;91.30;;;;;;5094532;28;20228;-64
2023/06/25 02:04:34;;;;;;;3.42;2.90;;;20.10;91.40;;;;;;5110144;28;20200;-64
2023/06/25 02:07:01;;;;;;;3.67;3.38;;;20.10;91.50;;;;;;5107502;28;20472;-65
2023/06/25 02:09:29;;;;;;;3.22;2.92;;;20.10;91.50;;;;;;5108199;28;20246;-66
2023/06/25 02:11:56;;;;;;;3.20;3.00;;;20.10;91.50;;;;;;5105920;28;20228;-65
2023/06/25 02:14:25;;;;;;;3.00;2.80;;;20.10;91.50;;;;;;5100438;28;20207;-65
2023/06/25 02:16:53;;;;;;;2.67;2.47;;;20.00;91.60;;;;;;5107081;28;20192;-65
2023/06/25 02:19:20;;;;;;;3.30;3.03;;;19.90;91.70;;;;;;5103028;28;20201;-64
2023/06/25 02:21:48;;;;;;;3.38;3.08;;;19.90;91.80;;;;;;5105533;28;20289;-65
2023/06/25 02:24:15;;;;;;;3.40;3.00;;;20.00;91.80;;;;;;5112171;28;20219;-65
2023/06/25 02:26:43;;;;;;;3.42;3.13;;;19.90;91.90;;;;;;5106446;28;20200;-65
2023/06/25 02:29:10;;;;;;;3.00;2.80;;;19.90;91.90;;;;;;5113541;28;20284;-64
2023/06/25 02:31:39;;;;;;;3.33;3.05;;;20.00;92.00;;;;;;5104623;28;20721;-64
2023/06/25 02:34:07;;;;;;;3.10;2.88;;;20.00;92.00;;;;;;5113567;28;20194;-64
2023/06/25 02:36:34;;;;;;;3.20;3.00;;;20.00;92.10;;;;;;5108309;28;20210;-65
2023/06/25 02:39:02;;;;;;;3.10;2.70;;;20.00;92.10;;;;;;5110770;28;20226;-65
2023/06/25 02:41:30;;;;;;;5.00;2.75;;;20.00;92.20;;;;;;5112733;27;20288;-65
2023/06/25 02:43:57;;;;;;;2.92;2.70;;;20.00;92.20;;;;;;5111949;28;20567;-66
2023/06/25 02:46:25;;;;;;;3.20;3.00;;;20.00;92.20;;;;;;5112897;28;20199;-65
2023/06/25 02:48:54;;;;;;;3.30;3.00;;;20.00;92.20;;;;;;5110290;28;20227;-65
2023/06/25 02:51:22;;;;;;;2.80;2.60;;;20.00;92.30;;;;;;5098291;28;20221;-65
2023/06/25 02:53:50;;;;;;;3.20;3.00;;;20.00;92.30;;;;;;5110009;28;20218;-64
2023/06/25 02:56:17;;;;;;;3.20;2.90;;;20.00;92.30;;;;;;5097434;28;20222;-65
2023/06/25 02:58:45;;;;;;;3.00;2.80;;;20.10;92.30;;;;;;5105975;28;20196;-65
2023/06/25 03:01:14;;;;;;;2.92;2.72;;;20.00;92.30;;;;;;5098054;28;20200;-65
2023/06/25 03:03:42;;;;;;;3.08;2.85;;;20.10;92.40;;;;;;5097737;28;20193;-65
2023/06/25 03:06:11;;;;;;;3.25;3.05;;;20.10;92.50;;;;;;5112980;28;20224;-65
2023/06/25 03:08:39;;;;;;;2.90;2.70;;;20.10;92.50;;;;;;5103598;28;20218;-65
2023/06/25 03:11:06;;;;;;;3.28;2.97;;;20.10;92.60;;;;;;5106789;28;20252;-65
2023/06/25 03:13:34;;;;;;;2.63;2.42;;;20.10;92.70;;;;;;5105601;28;20747;-65
2023/06/25 03:16:01;;;;;;;2.20;2.10;;;20.10;92.80;;;;;;5104741;28;20227;-65
2023/06/25 03:18:31;;;;;;;2.50;2.40;;;20.10;92.80;;;;;;5105091;28;20205;-64
2023/06/25 03:20:59;;;;;;;4.00;3.20;;;20.10;92.90;;;;;;5106165;28;20196;-64
2023/06/25 03:23:31;;;;;;;2.90;2.70;;;20.10;93.10;;;;;;5110017;28;20308;-65
2023/06/25 03:26:01;;;;;;;2.60;2.40;;;20.10;93.10;;;;;;5109668;28;20256;-65
2023/06/25 03:28:32;;;;;;;3.28;2.50;;;20.10;93.20;;;;;;5106544;28;20339;-64
2023/06/25 03:31:00;;;;;;;2.25;2.15;;;20.10;93.20;;;;;;5103625;28;20194;-65
2023/06/25 03:33:30;;;;;;;2.63;2.42;;;20.10;93.30;;;;;;5096649;28;20207;-65
2023/06/25 03:35:57;;;;;;;2.83;2.60;;;20.20;93.40;;;;;;5098561;28;20209;-65
2023/06/25 03:38:25;;;;;;;2.33;2.22;;;20.20;93.40;;;;;;5095028;28;20306;-65
2023/06/25 03:40:56;;;;;;;2.60;2.40;;;20.20;93.50;;;;;;5102027;28;20248;-65
2023/06/25 03:43:24;;;;;;;2.20;2.10;;;20.20;93.60;;;;;;5106410;28;20205;-66
2023/06/25 03:45:52;;;;;;;2.35;2.20;;;20.20;93.60;;;;;;5104601;28;20738;-64
2023/06/25 03:48:20;;;;;;;2.58;2.38;;;20.30;93.70;;;;;;5099692;28;20215;-64
2023/06/25 03:50:47;;;;;;;2.30;2.20;;;20.30;93.70;;;;;;5112099;28;20196;-65
2023/06/25 03:53:17;;;;;;;2.50;2.30;;;20.40;93.80;;;;;;5100557;28;20253;-65
2023/06/25 03:55:45;;;;;;;2.67;2.13;;;20.40;93.90;;;;;;5104978;28;20296;-65
2023/06/25 03:58:13;;;;;;;2.17;2.08;;;20.40;93.90;;;;;;5106961;28;20260;-65
2023/06/25 04:00:42;;;;;;;2.70;2.50;;;20.30;93.90;;;;;;5110080;28;20711;-66
2023/06/25 04:03:10;;;;;;;2.15;2.00;;;20.30;94.00;;;;;;5101748;28;20299;-64
2023/06/25 04:05:37;;;;;;;1.90;1.80;;;20.30;94.10;;;;;;5111338;28;20203;-66
2023/06/25 04:08:05;;;;;;;2.40;2.20;;;20.40;94.10;;;;;;5109339;28;20203;-65
2023/06/25 04:10:33;;;;;;;2.15;2.05;;;20.40;94.10;;;;;;5110272;28;20222;-66
2023/06/25 04:13:01;;;;;;;1.88;1.77;;;20.40;94.20;;;;;;5110879;28;20196;-66
2023/06/25 04:15:30;;;;;;;2.17;2.00;;;20.50;94.20;;;;;;5096785;28;20654;-65
2023/06/25 04:17:58;;;;;;;1.80;1.70;;;20.50;94.20;;;;;;5101769;28;20200;-66
2023/06/25 04:20:27;;;;;;;2.20;2.00;;;20.50;94.30;;;;;;5109353;28;20192;-66
2023/06/25 04:22:55;;;;;;;1.98;1.88;;;20.60;94.30;;;;;;5091503;28;20203;-66
2023/06/25 04:25:23;;;;;;;1.70;1.60;;;20.60;94.30;;;;;;5096510;28;20208;-65
2023/06/25 04:27:54;;;;;;;2.80;1.92;;;20.70;94.30;;;;;;5101085;28;20199;-65
2023/06/25 04:30:22;;;;;;;2.28;1.67;;;20.70;94.20;;;;;;5105441;28;20251;-67
2023/06/25 04:32:51;;;;;;;1.63;1.55;;;20.70;94.20;;;;;;5108540;28;20211;-65
2023/06/25 04:35:22;;;;;;;1.35;1.35;;;20.80;94.20;;;;;;5097494;28;20291;-65
2023/06/25 04:37:50;;;;;;;1.77;1.70;;;20.80;94.20;;;;;;5094083;28;20663;-66
2023/06/25 04:40:18;;;;;;;1.55;1.55;;;20.80;94.20;;;;;;5101527;28;20204;-66
2023/06/25 04:42:46;;;;;;;1.70;1.60;;;20.90;94.30;;;;;;5105549;28;20279;-66
2023/06/25 04:45:13;;;;;;;1.50;1.40;;;21.00;94.30;;;;;;5101341;28;20218;-66
2023/06/25 04:47:41;;;;;;;1.70;1.60;;;21.00;94.30;;;;;;5105936;28;20227;-66
2023/06/25 04:50:11;;;;;;;1.80;1.70;;;21.00;94.30;;;;;;5111176;28;20625;-66
2023/06/25 04:52:41;;;;;;;1.42;1.40;;;21.00;94.30;;;;;;5107065;28;20649;-65
2023/06/25 04:55:12;;;;;;;1.80;1.70;;;21.10;94.30;;;;;;5101057;28;20536;-65
2023/06/25 04:57:42;;;;;;;1.83;1.73;;;21.10;94.30;;;;;;5103665;28;20302;-64
2023/06/25 05:00:11;;;;;;;1.50;1.40;;;21.20;94.30;;;;;;5110220;28;20184;-65
2023/06/25 05:02:39;;;;;;;1.70;1.60;;;21.20;94.30;;;;;;5109691;28;20443;-65
2023/06/25 05:05:07;;;;;;;1.70;1.60;;;21.20;94.30;;;;;;5105261;28;20200;-65
2023/06/25 05:07:35;;;;;;;1.80;1.70;;;21.30;94.30;;;;;;5107203;28;20199;-65
2023/06/25 05:10:03;;;;;;;1.80;1.70;;;21.30;94.30;;;;;;5111098;28;20670;-66
2023/06/25 05:12:30;;;;;;;1.92;1.70;;;21.30;94.20;;;;;;5109312;28;20200;-66
2023/06/25 05:14:58;;;;;;;1.40;1.30;;;21.40;94.20;;;;;;5110894;28;20207;-66
2023/06/25 05:17:25;;;;;;;2.05;1.88;;;21.40;94.20;;;;;;5101149;28;20199;-66
2023/06/25 05:19:56;;;;;;;1.90;1.80;;;21.40;94.10;;;;;;5102874;28;20192;-66
2023/06/25 05:22:23;;;;;;;1.70;1.60;;;21.50;94.20;;;;;;5107335;28;20208;-65
2023/06/25 05:24:52;;;;;;;1.90;1.80;;;21.60;94.20;;;;;;5101577;28;20232;-65
2023/06/25 05:27:20;;;;;;;1.92;1.83;;;21.60;94.10;;;;;;5103430;28;20196;-66
2023/06/25 05:29:48;;;;;;;2.10;2.00;;;21.60;94.10;;;;;;5099160;28;20224;-66
2023/06/25 05:32:16;;;;;;;2.05;1.90;;;21.60;94.10;;;;;;5109600;28;20279;-66
2023/06/25 05:34:44;;;;;;;1.63;1.52;;;21.70;94.20;;;;;;5110702;28;20556;-66
2023/06/25 05:37:11;;;;;;;1.80;1.70;;;21.70;94.20;;;;;;5099412;28;20200;-66
2023/06/25 05:39:42;;;;;;;1.67;1.58;;;21.80;94.20;;;;;;5111793;28;20192;-64
2023/06/25 05:42:11;;;;;;;1.92;1.83;;;21.80;94.20;;;;;;5113879;28;20677;-66
2023/06/25 05:44:38;;;;;;;1.75;1.65;;;21.90;94.10;;;;;;5110186;28;20200;-65
2023/06/25 05:47:06;;;;;;;1.55;1.48;;;21.90;94.10;;;;;;5113676;28;20188;-65
2023/06/25 05:49:33;;;;;;;1.38;1.38;;;21.80;94.00;;;;;;5114329;28;20211;-66
2023/06/25 05:52:01;;;;;;;2.00;1.80;;;21.90;94.00;;;;;;5097519;28;20571;-65
2023/06/25 05:54:31;;;;;;;1.65;1.55;;;21.90;94.00;;;;;;5112653;28;20245;-65
2023/06/25 05:56:59;;;;;;;1.88;1.77;;;22.10;94.00;;;;;;5113165;28;20191;-65
2023/06/25 05:59:27;;;;;;;1.55;1.45;;;21.90;93.90;;;;;;5114458;28;20192;-65
2023/06/25 06:01:55;;;;;;;1.70;1.60;;;21.90;93.90;;;;;;5098749;28;20200;-66
2023/06/25 06:04:25;;;;;;;2.17;2.08;;;22.00;94.00;;;;;;5113519;28;20708;-64
2023/06/25 06:06:52;;;;;;;2.22;2.13;;;22.00;93.90;;;;;;5111486;28;20277;-65
2023/06/25 06:09:20;;;;;;;2.42;1.98;;;22.10;93.90;;;;;;5113897;28;20681;-66
2023/06/25 06:11:50;;;;;;;2.85;1.80;;;22.10;93.80;;;;;;5107400;28;20258;-65
2023/06/25 06:14:19;;;;;;;3.33;2.17;;;22.10;93.80;;;;;;5111902;28;20203;-65
2023/06/25 06:16:56;;;;;;;2.50;2.30;;;22.10;93.80;;;;;;5108421;28;20202;-64
2023/06/25 06:19:24;;;;;;;3.08;2.33;;;22.20;93.70;;;;;;5112166;28;20205;-65
2023/06/25 06:21:54;;;;;;;2.70;2.50;;;22.20;93.70;;;;;;5109477;28;20683;-65
2023/06/25 06:24:22;;;;;;;2.65;2.45;;;22.20;93.70;;;;;;5112912;28;20196;-65
2023/06/25 06:26:50;;;;;;;2.45;2.25;;;22.20;93.60;;;;;;5101618;28;20263;-65
2023/06/25 06:29:19;;;;;;;2.38;2.15;;;22.20;93.60;;;;;;5100614;28;20236;-66
2023/06/25 06:31:46;;;;;;;1.70;1.60;;;22.30;93.60;;;;;;5110306;28;20203;-65
2023/06/25 06:34:18;;;;;;;2.13;2.03;;;22.20;93.50;;;;;;5113295;28;20191;-65
2023/06/25 06:36:45;;;;;;;2.30;2.10;;;22.30;93.50;;;;;;5111944;28;20198;-65
2023/06/25 06:39:14;;;;;;;1.70;1.63;;;22.20;93.40;;;;;;5110988;28;20204;-66
2023/06/25 06:41:41;;;;;;;1.70;1.60;;;22.40;93.50;;;;;;5112624;28;20277;-65
2023/06/25 06:44:13;;;;;;;1.45;1.35;;;22.40;93.50;;;;;;5103085;28;20196;-65
2023/06/25 06:46:44;;;;;;;1.90;1.80;;;22.40;93.40;;;;;;5102000;28;20208;-64
2023/06/25 06:49:12;;;;;;;4.30;2.08;;;22.50;93.40;;;;;;5102254;28;20675;-65
2023/06/25 06:51:41;;;;;;;1.90;1.77;;;22.60;93.50;;;;;;5111501;28;20207;-65
2023/06/25 06:54:09;;;;;;;3.42;2.47;;;22.60;93.40;;;;;;5112469;28;20192;-66
2023/06/25 06:56:37;;;;;;;2.95;2.75;;;22.70;93.50;;;;;;5101163;28;20659;-65
2023/06/25 06:59:05;;;;;;;2.20;2.10;;;22.70;93.40;;;;;;5112891;28;20195;-66
2023/06/25 07:01:35;;;;;;;2.20;2.10;;;22.80;93.40;;;;;;5111900;28;20192;-65
2023/06/25 07:04:02;;;;;;;3.38;2.40;;;22.80;93.30;;;;;;5111273;28;20207;-66
2023/06/25 07:06:30;;;;;;;2.80;2.45;;;22.90;93.20;;;;;;5112585;28;20282;-65
2023/06/25 07:09:00;;;;;;;2.72;2.53;;;22.90;93.10;;;;;;5110418;28;20196;-65
2023/06/25 07:11:28;;;;;;;5.70;2.47;;;22.90;92.90;;;;;;5101527;28;20215;-66
2023/06/25 07:13:59;;;;;;;2.80;2.30;;;23.00;92.80;;;;;;5093644;28;20261;-66
2023/06/25 07:16:27;;;;;;;2.30;2.20;;;23.00;92.70;;;;;;5109686;28;20738;-65
2023/06/25 07:18:54;;;;;;;3.17;2.40;;;23.10;92.60;;;;;;5111703;28;20686;-64
2023/06/25 07:21:22;;;;;;;1.85;1.75;;;23.20;92.50;;;;;;5110388;28;20675;-65
2023/06/25 07:23:49;;;;;;;1.67;1.58;;;23.20;92.40;;;;;;5109512;28;20194;-66
2023/06/25 07:26:21;;;;;;;1.85;1.75;;;23.20;92.40;;;;;;5111127;28;20651;-66
2023/06/25 07:28:48;;;;;;;2.95;2.03;;;23.30;92.30;;;;;;5106619;28;20210;-65
2023/06/25 07:31:19;;;;;;;4.45;2.60;;;23.30;92.30;;;;;;5102464;28;20724;-65
2023/06/25 07:33:49;;;;;;;3.20;2.65;;;23.40;92.30;;;;;;5101025;28;20278;-65
2023/06/25 07:36:20;;;;;;;3.40;3.10;;;23.50;92.50;;;;;;5111831;28;20527;-65
2023/06/25 07:38:48;;;;;;;2.22;2.13;;;23.50;92.70;;;;;;5107929;28;20211;-65
2023/06/25 07:41:17;;;;;;;2.38;2.28;;;23.50;92.80;;;;;;5111934;28;20354;-65
2023/06/25 07:43:45;;;;;;;2.75;2.10;;;23.50;92.90;;;;;;5099653;28;20211;-66
2023/06/25 07:46:13;;;;;;;2.80;2.60;;;23.60;93.00;;;;;;5111706;28;20319;-66
2023/06/25 07:48:40;;;;;;;2.50;2.30;;;23.60;93.00;;;;;;5109749;28;20219;-64
2023/06/25 07:51:08;;;;;;;4.03;2.30;;;23.70;93.10;;;;;;5111431;28;20214;-65
2023/06/25 07:53:35;;;;;;;3.40;3.10;;;23.70;93.00;;;;;;5109487;28;20202;-65
2023/06/25 07:56:04;;;;;;;3.70;2.97;;;23.80;92.90;;;;;;5111293;28;20228;-65
2023/06/25 07:58:34;;;;;;;3.40;3.17;;;23.80;92.80;;;;;;5109291;28;20278;-65
2023/06/25 08:01:01;;;;;;;3.42;3.08;;;23.80;92.50;;;;;;5111172;28;20625;-65
2023/06/25 08:03:29;;;;;;;3.00;2.80;;;23.80;92.40;;;;;;5110830;28;20214;-66
2023/06/25 08:05:56;;;;;;;3.38;3.10;;;23.90;92.30;;;;;;5111549;28;20187;-65
2023/06/25 08:08:27;;;;;;;2.30;2.20;;;23.90;92.10;;;;;;5104227;28;20446;-65
2023/06/25 08:10:54;;;;;;;2.38;2.20;;;24.00;92.10;;;;;;5091037;28;20224;-67
2023/06/25 08:13:22;;;;;;;2.80;2.60;;;24.10;91.90;;;;;;5108264;28;20241;-65
2023/06/25 08:15:51;;;;;;;3.42;2.97;;;24.10;91.70;;;;;;5111372;28;20200;-65
2023/06/25 08:18:18;;;;;;;2.78;2.50;;;24.20;91.60;;;;;;5108592;28;20200;-65
2023/06/25 08:20:46;;;;;;;2.10;2.00;;;24.30;91.60;;;;;;5109232;28;20192;-65
2023/06/25 08:23:13;;;;;;;2.70;2.50;;;24.30;91.40;;;;;;5108408;28;20204;-66
2023/06/25 08:25:41;;;;;;;4.20;3.08;;;24.40;90.90;;;;;;5111432;28;20294;-65
2023/06/25 08:28:10;;;;;;;3.17;2.92;;;24.50;90.70;;;;;;5095417;28;20302;-65
2023/06/25 08:30:38;;;;;;;2.60;2.40;;;24.50;90.60;;;;;;5109265;28;20235;-65
2023/06/25 08:33:08;;;;;;;2.17;2.00;;;24.50;90.50;;;;;;5100355;28;20295;-69
2023/06/25 08:35:35;;;;;;;2.97;2.60;;;24.60;90.50;;;;;;5092789;28;20184;-64
2023/06/25 08:38:03;;;;;;;2.05;1.95;;;24.70;90.30;;;;;;5097195;28;20282;-65
2023/06/25 08:40:33;;;;;;;1.80;1.70;;;24.70;90.30;;;;;;5098318;28;20756;-65
2023/06/25 08:43:01;;;;;;;2.80;2.40;;;24.80;90.40;;;;;;5109262;28;20216;-65
2023/06/25 08:45:32;;;;;;;1.80;1.70;;;24.90;90.40;;;;;;5111114;28;20257;-66
2023/06/25 08:48:03;;;;;;;1.70;1.60;;;25.00;90.30;;;;;;5110283;28;20520;-66
2023/06/25 08:50:33;;;;;;;2.63;1.83;;;25.10;90.20;;;;;;5096156;28;20213;-65
2023/06/25 08:53:04;;;;;;;2.38;2.17;;;25.10;90.10;;;;;;5108741;28;20655;-65
2023/06/25 08:55:34;;;;;;;2.28;1.77;;;25.20;90.00;;;;;;5110926;28;20198;-66
2023/06/25 08:58:01;;;;;;;1.80;1.70;;;25.30;90.00;;;;;;5106435;28;20188;-66
2023/06/25 09:00:32;;;;;;;1.80;1.70;;;25.50;90.10;;;;;;5110857;28;20579;-66
2023/06/25 09:03:00;;;;;;;1.90;1.80;;;25.40;90.00;;;;;;5102913;28;20215;-66
2023/06/25 09:05:28;;;;;;;2.80;2.45;;;25.40;90.00;;;;;;5096205;28;20231;-66
2023/06/25 09:07:57;;;;;;;2.65;2.30;;;25.50;89.60;;;;;;5100364;28;20286;-66
2023/06/25 09:10:26;;;;;;;2.10;2.00;;;25.50;89.30;;;;;;5110609;28;20610;-64
2023/06/25 09:12:54;;;;;;;2.33;2.13;;;25.60;89.30;;;;;;5110443;28;20200;-66
2023/06/25 09:15:22;;;;;;;2.03;1.92;;;25.70;89.40;;;;;;5113119;28;20532;-65
2023/06/25 09:17:52;;;;;;;1.85;1.75;;;25.70;89.40;;;;;;5114165;28;20187;-65
2023/06/25 09:20:22;;;;;;;1.80;1.70;;;25.80;89.30;;;;;;5105490;28;20731;-65
2023/06/25 09:22:50;;;;;;;1.65;1.55;;;25.90;89.20;;;;;;5097749;28;20218;-65
2023/06/25 09:25:20;;;;;;;1.80;1.70;;;25.90;89.00;;;;;;5114502;28;20215;-65
2023/06/25 09:27:48;;;;;;;1.88;1.77;;;26.00;88.80;;;;;;5110393;28;20184;-65
2023/06/25 09:30:18;;;;;;;1.70;1.60;;;26.10;88.70;;;;;;5111947;28;20239;-65
2023/06/25 09:32:52;;;;;;;1.60;1.50;;;26.20;88.60;;;;;;5113948;28;20196;-65
2023/06/25 09:35:21;;;;;;;2.08;1.98;;;26.20;88.10;;;;;;5110323;28;20227;-65
2023/06/25 09:37:59;;;;;;;1.70;1.60;;;26.30;87.60;;;;;;5092144;28;20295;-68
2023/06/25 09:40:29;;;;;;;2.70;2.50;;;26.30;87.20;;;;;;5112950;28;20192;-65
2023/06/25 09:42:58;;;;;;;1.90;1.80;;;26.30;86.20;;;;;;5112625;28;20195;-65
2023/06/25 09:45:43;;;;;;;2.05;1.95;;;26.40;86.10;;;;;;5114417;28;20188;-66
2023/06/25 09:48:12;;;;;;;2.95;2.47;;;26.40;86.10;;;;;;5111828;28;20196;-65
2023/06/25 09:50:45;;;;;;;4.65;2.85;;;26.50;85.60;;;;;;5114325;28;20257;-65
2023/06/25 09:53:18;;;;;;;3.88;3.47;;;26.50;85.10;;;;;;5110437;28;20296;-65
2023/06/25 09:55:50;;;;;;;3.13;2.92;;;26.50;84.30;;;;;;5114288;28;20270;-65
2023/06/25 09:58:19;;;;;;;2.50;2.30;;;26.50;84.30;;;;;;5113037;28;20672;-65
2023/06/25 10:00:47;;;;;;;2.33;2.17;;;26.50;84.50;;;;;;5113584;28;20192;-65
2023/06/25 10:03:17;;;;;;;2.17;2.08;;;26.60;84.70;;;;;;5113841;28;20211;-65
2023/06/25 10:05:46;;;;;;;1.60;1.60;;;26.70;84.90;;;;;;5113713;28;20207;-66
2023/06/25 10:08:15;;;;;;;1.90;1.80;;;26.70;84.90;;;;;;5111429;28;20202;-66
2023/06/25 10:10:44;;;;;;;1.90;1.80;;;26.80;85.00;;;;;;5095273;28;20228;-66
2023/06/25 10:13:19;;;;;;;1.92;1.83;;;26.90;85.00;;;;;;5111452;28;20199;-65
2023/06/25 10:15:48;;;;;;;1.80;1.70;;;26.90;84.90;;;;;;5104517;28;20246;-65
2023/06/25 10:18:24;;;;;;;2.10;2.00;;;27.00;84.90;;;;;;5111787;28;20207;-65
2023/06/25 10:20:56;;;;;;;5.25;2.53;;;27.10;84.60;;;;;;5105275;28;20195;-66
2023/06/25 10:23:23;;;;;;;4.20;2.85;;;27.10;83.80;;;;;;5111092;28;20220;-64
2023/06/25 10:25:56;;;;;;;2.70;2.50;;;27.10;83.10;;;;;;5108619;28;20196;-66
2023/06/25 10:28:31;;;;;;;2.65;2.50;;;27.10;83.00;;;;;;5112819;28;20195;-66
2023/06/25 10:30:59;;;;;;;3.50;3.17;;;27.10;83.00;;;;;;5112932;28;20691;-65
2023/06/25 10:33:30;;;;;;;2.65;2.45;;;27.10;82.30;;;;;;5112771;28;20195;-65
2023/06/25 10:35:59;;;;;;;2.60;2.40;;;27.10;82.10;;;;;;5113383;28;20664;-66
2023/06/25 10:38:26;;;;;;;4.15;3.15;;;27.10;81.80;;;;;;5104735;28;20280;-66
2023/06/25 10:40:55;;;;;;;2.85;2.65;;;27.10;80.90;;;;;;5113296;28;20195;-66
2023/06/25 10:43:22;;;;;;;2.80;2.60;;;27.10;80.60;;;;;;5112785;28;20238;-66
2023/06/25 10:45:55;;;;;;;2.65;2.55;;;27.10;80.30;;;;;;5110248;28;20231;-66
2023/06/25 10:48:24;;;;;;;2.72;2.40;;;27.10;80.10;;;;;;5109441;28;20608;-66
2023/06/25 10:50:52;;;;;;;2.75;2.55;;;27.10;80.10;;;;;;5111043;28;20192;-66
2023/06/25 10:53:24;;;;;;;2.80;2.60;;;27.20;79.80;;;;;;5110940;28;20199;-66
2023/06/25 10:55:52;;;;;;;2.58;2.38;;;27.20;79.40;;;;;;5104603;28;20203;-65
2023/06/25 10:58:24;;;;;;;3.15;2.80;;;27.30;79.00;;;;;;5112130;28;20559;-65
2023/06/25 11:00:57;;;;;;;3.65;3.40;;;27.30;78.70;;;;;;5112547;28;20256;-65
2023/06/25 11:03:28;;;;;;;5.22;4.45;;;27.30;78.50;;;;;;5105631;27;20248;-65
2023/06/25 11:05:58;;;;;;;3.78;3.42;;;27.30;78.40;;;;;;5112643;28;20218;-65
2023/06/25 11:08:26;;;;;;;2.95;2.60;;;27.40;78.60;;;;;;5110369;28;20215;-65
2023/06/25 11:10:54;;;;;;;2.65;2.45;;;27.40;78.60;;;;;;5098200;28;20218;-65
2023/06/25 11:13:22;;;;;;;4.22;3.30;;;27.50;78.40;;;;;;5099885;28;20671;-65
2023/06/25 11:15:50;;;;;;;3.60;3.05;;;27.50;76.70;;;;;;5112572;28;20237;-65
2023/06/25 11:18:22;;;;;;;2.75;2.55;;;27.50;76.30;;;;;;5109495;28;20196;-65
2023/06/25 11:20:50;;;;;;;2.75;2.55;;;27.50;75.90;;;;;;5102777;28;20202;-65
2023/06/25 11:23:18;;;;;;;2.67;2.47;;;27.60;75.70;;;;;;5110134;28;20204;-65
2023/06/25 11:25:45;;;;;;;2.60;2.40;;;27.60;75.50;;;;;;5112296;28;20192;-65
2023/06/25 11:28:15;;;;;;;4.00;2.67;;;27.60;75.10;;;;;;5104581;28;20713;-66
2023/06/25 11:30:45;;;;;;;2.63;2.42;;;27.60;74.80;;;;;;5109824;28;20234;-65
2023/06/25 11:33:15;;;;;;;3.35;2.22;;;27.60;74.70;;;;;;5097465;28;20200;-65
2023/06/25 11:35:49;;;;;;;2.65;2.45;;;27.60;74.70;;;;;;5111614;28;20198;-65
2023/06/25 11:38:26;;;;;;;2.50;2.30;;;27.60;74.10;;;;;;5104990;28;20187;-65
2023/06/25 11:40:54;;;;;;;2.58;2.00;;;27.70;73.50;;;;;;5094547;28;20204;-65
2023/06/25 11:43:23;;;;;;;2.50;2.30;;;27.60;72.50;;;;;;5107300;28;20249;-65
2023/06/25 11:45:50;;;;;;;2.63;2.42;;;27.60;71.90;;;;;;5112216;28;20204;-66
2023/06/25 11:48:20;;;;;;;2.35;2.25;;;27.70;71.30;;;;;;5111771;28;20601;-66
2023/06/25 11:50:52;;;;;;;3.70;2.10;;;27.60;70.50;;;;;;5106818;28;20196;-66
2023/06/25 11:53:19;;;;;;;2.42;2.30;;;27.70;70.20;;;;;;5103517;28;20697;-65
2023/06/25 11:55:47;;;;;;;2.42;2.22;;;27.70;69.90;;;;;;5098876;28;20203;-65
2023/06/25 11:58:14;;;;;;;2.00;1.90;;;27.70;69.40;;;;;;5107175;28;20675;-65
2023/06/25 12:00:44;;;;;;;2.63;2.20;;;27.70;68.60;;;;;;5098574;28;20307;-64
2023/06/25 12:03:11;;;;;;;2.20;2.10;;;27.70;68.40;;;;;;5109566;28;20207;-64
2023/06/25 12:05:39;;;;;;;1.63;1.60;;;27.70;68.10;;;;;;5111472;28;20278;-65
2023/06/25 12:08:09;;;;;;;2.10;1.90;;;27.70;68.50;;;;;;5109439;28;20219;-65
2023/06/25 12:10:37;;;;;;;2.03;1.90;;;27.70;68.40;;;;;;5111952;28;20188;-65
2023/06/25 12:13:04;;;;;;;2.90;1.95;;;27.70;67.90;;;;;;5111324;28;20215;-64
2023/06/25 12:15:32;;;;;;;2.67;1.95;;;27.80;68.00;;;;;;5111298;28;20196;-64
2023/06/25 12:18:01;;;;;;;2.20;2.10;;;27.80;67.90;;;;;;5107640;28;20211;-65
2023/06/25 12:20:28;;;;;;;2.05;1.95;;;27.80;67.50;;;;;;5105584;28;20575;-66
2023/06/25 12:22:55;;;;;;;2.63;2.35;;;27.80;68.00;;;;;;5103632;28;20200;-65
2023/06/25 12:25:25;;;;;;;3.75;2.35;;;27.90;67.30;;;;;;5110368;28;20697;-66
2023/06/25 12:27:54;;;;;;;2.28;2.13;;;27.90;67.20;;;;;;5110661;28;20192;-66
2023/06/25 12:30:22;;;;;;;2.10;2.00;;;27.90;67.00;;;;;;5111441;28;20244;-66
2023/06/25 12:32:51;;;;;;;1.90;1.80;;;27.80;67.00;;;;;;5109841;28;20208;-65
2023/06/25 12:35:19;;;;;;;2.03;1.92;;;27.80;67.20;;;;;;5111140;28;20278;-64
2023/06/25 12:37:46;;;;;;;1.85;1.75;;;27.80;67.40;;;;;;5093741;28;20601;-66
2023/06/25 12:40:17;;;;;;;1.70;1.60;;;27.80;67.70;;;;;;5092149;28;20200;-65
2023/06/25 12:42:46;;;;;;;2.40;2.17;;;27.80;67.80;;;;;;5106353;28;20180;-65
2023/06/25 12:45:13;;;;;;;2.10;2.00;;;27.90;67.80;;;;;;5102650;28;20219;-65
2023/06/25 12:47:42;;;;;;;2.25;2.03;;;27.90;68.00;;;;;;5106499;28;20200;-66
2023/06/25 12:50:12;;;;;;;2.15;2.05;;;28.00;68.40;;;;;;5105879;28;20231;-65
2023/06/25 12:52:40;;;;;;;2.15;2.05;;;28.00;68.20;;;;;;5106373;28;20200;-64
2023/06/25 12:55:10;;;;;;;2.10;2.00;;;28.00;68.20;;;;;;5108829;28;20196;-65